sensor_id;sensor_type;location;lat;lon;timestamp;pressure;altitude;pressure_sealevel;temperature;humidity
83128;BME280;74297;51.482;11.962;2024-03-06T10:44:52;101257.41;;;25.58;37.72
83128;BME280;74297;51.482;11.962;2024-03-06T10:47:19;101263.66;;;25.56;37.97
83128;BME280;74297;51.482;11.962;2024-03-06T10:49:45;101261.19;;;25.50;38.44
83128;BME280;74297;51.482;11.962;2024-03-06T10:52:12;101270.03;;;25.50;37.79
83128;BME280;74297;51.482;11.962;2024-03-06T10:54:37;101263.03;;;25.48;37.94
83128;BME280;74297;51.482;11.962;2024-03-06T10:57:08;101263.97;;;25.45;37.90
83128;BME280;74297;51.482;11.962;2024-03-06T10:59:35;101266.63;;;25.45;38.31
83128;BME280;74297;51.482;11.962;2024-03-06T11:02:01;101271.16;;;25.42;38.10
83128;BME280;74297;51.482;11.962;2024-03-06T11:04:27;101272.16;;;25.38;38.19
83128;BME280;74297;51.482;11.962;2024-03-06T11:06:54;101281.97;;;25.36;38.30
83128;BME280;74297;51.482;11.962;2024-03-06T11:09:19;101275.91;;;25.31;38.29
83128;BME280;74297;51.482;11.962;2024-03-06T11:11:48;101273.31;;;25.29;38.55
83128;BME280;74297;51.482;11.962;2024-03-06T11:14:14;101262.00;;;25.21;38.67
83128;BME280;74297;51.482;11.962;2024-03-06T11:16:58;101269.84;;;25.24;38.58
83128;BME280;74297;51.482;11.962;2024-03-06T11:19:25;101277.78;;;25.26;38.49
83128;BME280;74297;51.482;11.962;2024-03-06T11:21:50;101268.97;;;25.25;39.04
83128;BME280;74297;51.482;11.962;2024-03-06T11:24:20;101271.69;;;25.22;38.58
83128;BME280;74297;51.482;11.962;2024-03-06T11:26:47;101270.97;;;25.17;38.68
83128;BME280;74297;51.482;11.962;2024-03-06T11:29:15;101276.28;;;25.17;38.76
83128;BME280;74297;51.482;11.962;2024-03-06T11:32:02;101277.22;;;25.15;38.90
83128;BME280;74297;51.482;11.962;2024-03-06T11:34:29;101278.22;;;25.11;38.90
83128;BME280;74297;51.482;11.962;2024-03-06T11:36:56;101282.63;;;25.12;39.17
83128;BME280;74297;51.482;11.962;2024-03-06T11:39:22;101275.72;;;25.05;38.74
83128;BME280;74297;51.482;11.962;2024-03-06T11:41:49;101280.00;;;25.10;39.33
83128;BME280;74297;51.482;11.962;2024-03-06T11:44:16;101280.94;;;25.08;39.26
83128;BME280;74297;51.482;11.962;2024-03-06T11:46:42;101274.81;;;25.06;39.31
83128;BME280;74297;51.482;11.962;2024-03-06T11:49:15;101269.69;;;25.00;39.46
83128;BME280;74297;51.482;11.962;2024-03-06T11:51:41;101281.94;;;25.04;39.59
83128;BME280;74297;51.482;11.962;2024-03-06T11:54:06;101284.59;;;25.04;39.30
83128;BME280;74297;51.482;11.962;2024-03-06T11:56:32;101282.88;;;25.03;39.21
83128;BME280;74297;51.482;11.962;2024-03-06T11:58:58;101280.25;;;25.01;39.33
83128;BME280;74297;51.482;11.962;2024-03-06T12:01:24;101282.91;;;25.01;39.24
83128;BME280;74297;51.482;11.962;2024-03-06T12:03:49;101279.38;;;25.01;39.51
83128;BME280;74297;51.482;11.962;2024-03-06T12:06:15;101282.91;;;25.01;39.08
83128;BME280;74297;51.482;11.962;2024-03-06T12:08:42;101283.75;;;25.02;38.71
83128;BME280;74297;51.482;11.962;2024-03-06T12:11:08;101280.22;;;25.03;38.44
83128;BME280;74297;51.482;11.962;2024-03-06T12:13:33;101271.31;;;25.05;38.76
83128;BME280;74297;51.482;11.962;2024-03-06T12:16:04;101280.00;;;25.10;38.82
83128;BME280;74297;51.482;11.962;2024-03-06T12:18:29;101276.38;;;25.13;39.02
83128;BME280;74297;51.482;11.962;2024-03-06T12:20:54;101272.78;;;25.15;38.71
83128;BME280;74297;51.482;11.962;2024-03-06T12:23:20;101271.84;;;25.16;38.37
83128;BME280;74297;51.482;11.962;2024-03-06T12:25:48;101276.28;;;25.17;38.73
83128;BME280;74297;51.482;11.962;2024-03-06T12:28:14;101270.97;;;25.17;38.81
83128;BME280;74297;51.482;11.962;2024-03-06T12:30:41;101278.97;;;25.16;38.66
83128;BME280;74297;51.482;11.962;2024-03-06T12:33:08;101282.56;;;25.13;38.92
83128;BME280;74297;51.482;11.962;2024-03-06T12:35:34;101281.69;;;25.13;38.95
83128;BME280;74297;51.482;11.962;2024-03-06T12:37:59;101286.13;;;25.12;38.98
83128;BME280;74297;51.482;11.962;2024-03-06T12:40:24;101284.38;;;25.11;39.03
83128;BME280;74297;51.482;11.962;2024-03-06T12:42:50;101285.31;;;25.10;39.07
83128;BME280;74297;51.482;11.962;2024-03-06T12:45:18;101283.59;;;25.08;39.28
83128;BME280;74297;51.482;11.962;2024-03-06T12:47:44;101284.56;;;25.05;38.99
83128;BME280;74297;51.482;11.962;2024-03-06T12:50:11;101278.53;;;25.00;39.68
83128;BME280;74297;51.482;11.962;2024-03-06T12:52:37;101282.03;;;25.01;39.58
83128;BME280;74297;51.482;11.962;2024-03-06T12:55:03;101284.72;;;24.99;39.36
83128;BME280;74297;51.482;11.962;2024-03-06T12:57:31;101284.72;;;24.99;39.66
83128;BME280;74297;51.482;11.962;2024-03-06T12:59:58;101285.63;;;24.98;39.68
83128;BME280;74297;51.482;11.962;2024-03-06T13:02:23;101277.69;;;24.98;39.71
83128;BME280;74297;51.482;11.962;2024-03-06T13:04:49;101276.91;;;24.95;39.36
83128;BME280;74297;51.482;11.962;2024-03-06T13:07:14;101264.66;;;24.89;39.39
83128;BME280;74297;51.482;11.962;2024-03-06T13:09:40;101277.84;;;24.92;39.32
83128;BME280;74297;51.482;11.962;2024-03-06T13:12:06;101254.31;;;24.80;38.60
83128;BME280;74297;51.482;11.962;2024-03-06T13:14:32;101270.88;;;24.88;38.10
83128;BME280;74297;51.482;11.962;2024-03-06T13:16:59;101272.66;;;24.88;37.22
83128;BME280;74297;51.482;11.962;2024-03-06T13:19:24;101271.00;;;24.84;37.80
83128;BME280;74297;51.482;11.962;2024-03-06T13:21:50;101268.34;;;24.84;37.32
83128;BME280;74297;51.482;11.962;2024-03-06T13:24:15;101259.63;;;24.80;36.54
83128;BME280;74297;51.482;11.962;2024-03-06T13:26:40;101268.34;;;24.84;36.24
83128;BME280;74297;51.482;11.962;2024-03-06T13:29:06;101208.34;;;24.46;36.44
83128;BME280;74297;51.482;11.962;2024-03-06T13:31:32;101271.00;;;24.84;36.88
83128;BME280;74297;51.482;11.962;2024-03-06T13:33:59;101264.78;;;24.85;35.50
83128;BME280;74297;51.482;11.962;2024-03-06T13:36:25;101269.13;;;24.87;35.65
83128;BME280;74297;51.482;11.962;2024-03-06T13:38:50;101269.00;;;24.92;35.56
83128;BME280;74297;51.482;11.962;2024-03-06T13:41:16;101268.06;;;24.94;35.73
83128;BME280;74297;51.482;11.962;2024-03-06T13:43:41;101267.91;;;25.00;35.45
83128;BME280;74297;51.482;11.962;2024-03-06T13:46:07;101266.94;;;25.03;35.41
